Elton, Louisiana
Current Conditions -  °F | °C
As of 1:15 AM on Friday 31 Oct 2014 (Local Time) from K3R7 Reporting Station
Clear Clear  
Wind Chill: 53°   Ceiling: Unl
Heat Index: 53°   Visibility: 10mi
Dew Point: 50°   Wind: 0mph
Humidity: 91%   Direction: NA
Pressure: 30.08"   Gusts: NA
Location:  30.48°N, 92.7°W
Report Text: K3R7 310615Z AUTO 00000KT 10SM CLR 12/10 A3008 RMK AO2 T01150100
Loading
Personal Weather Stations






























Interactive Weather Map
Tropical Storm Tracking
New forecast layout! Learn more

10-Day Weather Forecast

Advertisements
Track Severe Weather on mobile